sensor_id;sensor_type;location;lat;lon;timestamp;temperature;humidity
23703;DHT22;12030;50.376;8.762;2023-12-28T00:02:03;5.60;99.90
23703;DHT22;12030;50.376;8.762;2023-12-28T00:04:29;5.60;99.90
23703;DHT22;12030;50.376;8.762;2023-12-28T00:06:55;5.60;99.90
23703;DHT22;12030;50.376;8.762;2023-12-28T00:09:20;5.60;99.90
23703;DHT22;12030;50.376;8.762;2023-12-28T00:11:46;5.60;99.90
23703;DHT22;12030;50.376;8.762;2023-12-28T00:14:11;5.60;99.90
23703;DHT22;12030;50.376;8.762;2023-12-28T00:20:12;5.60;99.90
23703;DHT22;12030;50.376;8.762;2023-12-28T00:22:37;5.60;99.90
23703;DHT22;12030;50.376;8.762;2023-12-28T00:25:06;5.60;99.90
23703;DHT22;12030;50.376;8.762;2023-12-28T00:27:32;5.60;99.90
23703;DHT22;12030;50.376;8.762;2023-12-28T00:29:59;5.70;99.90
23703;DHT22;12030;50.376;8.762;2023-12-28T00:32:25;5.70;99.90
23703;DHT22;12030;50.376;8.762;2023-12-28T00:34:50;5.80;99.90
23703;DHT22;12030;50.376;8.762;2023-12-28T00:37:16;5.80;99.90
23703;DHT22;12030;50.376;8.762;2023-12-28T00:39:41;5.80;99.90
23703;DHT22;12030;50.376;8.762;2023-12-28T00:42:07;5.80;99.90
23703;DHT22;12030;50.376;8.762;2023-12-28T00:44:32;5.80;99.90
23703;DHT22;12030;50.376;8.762;2023-12-28T00:46:58;5.80;99.90
23703;DHT22;12030;50.376;8.762;2023-12-28T00:49:23;5.90;99.90
23703;DHT22;12030;50.376;8.762;2023-12-28T00:51:49;5.90;99.90
23703;DHT22;12030;50.376;8.762;2023-12-28T00:54:14;5.90;99.90
23703;DHT22;12030;50.376;8.762;2023-12-28T00:56:40;5.90;99.90
23703;DHT22;12030;50.376;8.762;2023-12-28T00:59:05;5.90;99.90
23703;DHT22;12030;50.376;8.762;2023-12-28T01:01:31;5.90;99.90
23703;DHT22;12030;50.376;8.762;2023-12-28T01:03:57;6.00;99.90
23703;DHT22;12030;50.376;8.762;2023-12-28T01:06:22;6.00;99.90
23703;DHT22;12030;50.376;8.762;2023-12-28T01:08:53;6.10;99.90
23703;DHT22;12030;50.376;8.762;2023-12-28T01:11:18;6.20;99.90
23703;DHT22;12030;50.376;8.762;2023-12-28T01:13:44;6.20;99.90
23703;DHT22;12030;50.376;8.762;2023-12-28T01:16:11;6.20;99.90
23703;DHT22;12030;50.376;8.762;2023-12-28T01:18:37;6.30;99.90
23703;DHT22;12030;50.376;8.762;2023-12-28T01:21:03;6.30;99.90
23703;DHT22;12030;50.376;8.762;2023-12-28T01:23:28;6.30;99.90
23703;DHT22;12030;50.376;8.762;2023-12-28T01:25:55;6.30;99.90
23703;DHT22;12030;50.376;8.762;2023-12-28T01:28:21;6.40;99.90
23703;DHT22;12030;50.376;8.762;2023-12-28T01:30:47;6.40;99.90
23703;DHT22;12030;50.376;8.762;2023-12-28T01:33:12;6.50;99.90
23703;DHT22;12030;50.376;8.762;2023-12-28T01:35:38;6.50;99.90
23703;DHT22;12030;50.376;8.762;2023-12-28T01:38:04;6.50;99.90
23703;DHT22;12030;50.376;8.762;2023-12-28T01:40:29;6.50;99.90
23703;DHT22;12030;50.376;8.762;2023-12-28T01:42:55;6.50;99.90
23703;DHT22;12030;50.376;8.762;2023-12-28T01:45:20;6.60;99.90
23703;DHT22;12030;50.376;8.762;2023-12-28T01:47:47;6.60;99.90
23703;DHT22;12030;50.376;8.762;2023-12-28T01:50:13;6.60;99.90
23703;DHT22;12030;50.376;8.762;2023-12-28T01:52:39;6.70;99.90
23703;DHT22;12030;50.376;8.762;2023-12-28T01:55:06;6.70;99.90
23703;DHT22;12030;50.376;8.762;2023-12-28T01:57:33;6.80;99.90
23703;DHT22;12030;50.376;8.762;2023-12-28T01:59:59;6.80;99.90
23703;DHT22;12030;50.376;8.762;2023-12-28T02:02:27;6.80;99.90
23703;DHT22;12030;50.376;8.762;2023-12-28T02:04:53;6.80;99.90
23703;DHT22;12030;50.376;8.762;2023-12-28T02:07:20;6.80;99.90
23703;DHT22;12030;50.376;8.762;2023-12-28T02:09:46;6.90;99.90
23703;DHT22;12030;50.376;8.762;2023-12-28T02:12:11;6.90;99.90
23703;DHT22;12030;50.376;8.762;2023-12-28T02:14:37;6.90;99.90
23703;DHT22;12030;50.376;8.762;2023-12-28T02:17:28;7.00;99.90
23703;DHT22;12030;50.376;8.762;2023-12-28T02:19:54;7.00;99.90
23703;DHT22;12030;50.376;8.762;2023-12-28T02:22:23;7.10;99.90
23703;DHT22;12030;50.376;8.762;2023-12-28T02:27:26;7.00;99.90
23703;DHT22;12030;50.376;8.762;2023-12-28T02:29:52;7.00;99.90
23703;DHT22;12030;50.376;8.762;2023-12-28T02:32:24;7.00;99.90
23703;DHT22;12030;50.376;8.762;2023-12-28T02:34:55;7.00;99.90
23703;DHT22;12030;50.376;8.762;2023-12-28T02:37:22;6.90;99.90
23703;DHT22;12030;50.376;8.762;2023-12-28T02:39:49;6.90;99.90
23703;DHT22;12030;50.376;8.762;2023-12-28T02:42:15;6.90;99.90
23703;DHT22;12030;50.376;8.762;2023-12-28T02:44:41;6.90;99.90
23703;DHT22;12030;50.376;8.762;2023-12-28T02:47:06;6.90;99.90
23703;DHT22;12030;50.376;8.762;2023-12-28T02:49:32;6.80;99.90
23703;DHT22;12030;50.376;8.762;2023-12-28T02:51:57;6.80;99.90
23703;DHT22;12030;50.376;8.762;2023-12-28T02:54:23;6.80;99.90
23703;DHT22;12030;50.376;8.762;2023-12-28T02:56:48;6.90;99.90
23703;DHT22;12030;50.376;8.762;2023-12-28T02:59:14;6.90;99.90
23703;DHT22;12030;50.376;8.762;2023-12-28T03:01:39;6.90;99.90
23703;DHT22;12030;50.376;8.762;2023-12-28T03:04:05;6.90;99.90
23703;DHT22;12030;50.376;8.762;2023-12-28T03:06:30;6.90;99.90
23703;DHT22;12030;50.376;8.762;2023-12-28T03:08:56;6.90;99.90
23703;DHT22;12030;50.376;8.762;2023-12-28T03:11:21;7.00;99.90
23703;DHT22;12030;50.376;8.762;2023-12-28T03:13:47;7.00;99.90
23703;DHT22;12030;50.376;8.762;2023-12-28T03:16:13;7.00;99.90
23703;DHT22;12030;50.376;8.762;2023-12-28T03:18:39;7.00;99.90
23703;DHT22;12030;50.376;8.762;2023-12-28T03:21:05;7.10;99.90
23703;DHT22;12030;50.376;8.762;2023-12-28T03:23:30;7.10;99.90
23703;DHT22;12030;50.376;8.762;2023-12-28T03:25:56;7.10;99.90
23703;DHT22;12030;50.376;8.762;2023-12-28T03:28:21;7.10;99.90
23703;DHT22;12030;50.376;8.762;2023-12-28T03:30:47;7.10;99.90
23703;DHT22;12030;50.376;8.762;2023-12-28T03:33:12;7.10;99.90
23703;DHT22;12030;50.376;8.762;2023-12-28T03:35:38;7.10;99.90
23703;DHT22;12030;50.376;8.762;2023-12-28T03:38:03;7.10;99.90
23703;DHT22;12030;50.376;8.762;2023-12-28T03:40:29;7.10;99.90
23703;DHT22;12030;50.376;8.762;2023-12-28T03:42:54;7.10;99.90
23703;DHT22;12030;50.376;8.762;2023-12-28T03:45:20;7.10;99.90
23703;DHT22;12030;50.376;8.762;2023-12-28T03:47:45;7.10;99.90
23703;DHT22;12030;50.376;8.762;2023-12-28T03:50:11;7.10;99.90
23703;DHT22;12030;50.376;8.762;2023-12-28T03:52:36;7.20;99.90
23703;DHT22;12030;50.376;8.762;2023-12-28T03:55:02;7.20;99.90
23703;DHT22;12030;50.376;8.762;2023-12-28T03:57:27;7.20;99.90
23703;DHT22;12030;50.376;8.762;2023-12-28T03:59:53;7.20;99.90
23703;DHT22;12030;50.376;8.762;2023-12-28T04:02:19;7.20;99.90
23703;DHT22;12030;50.376;8.762;2023-12-28T04:04:44;7.20;99.90
23703;DHT22;12030;50.376;8.762;2023-12-28T04:07:10;7.10;99.90
23703;DHT22;12030;50.376;8.762;2023-12-28T04:09:35;7.10;99.90
23703;DHT22;12030;50.376;8.762;2023-12-28T04:12:01;7.10;99.90
23703;DHT22;12030;50.376;8.762;2023-12-28T04:14:27;7.20;99.90
23703;DHT22;12030;50.376;8.762;2023-12-28T04:16:52;7.20;99.90
23703;DHT22;12030;50.376;8.762;2023-12-28T04:19:18;7.20;99.90
23703;DHT22;12030;50.376;8.762;2023-12-28T04:21:43;7.20;99.90
23703;DHT22;12030;50.376;8.762;2023-12-28T04:24:09;7.30;99.90
23703;DHT22;12030;50.376;8.762;2023-12-28T04:26:35;7.30;99.90
23703;DHT22;12030;50.376;8.762;2023-12-28T04:29:00;7.30;99.90
23703;DHT22;12030;50.376;8.762;2023-12-28T04:31:26;7.30;99.90
23703;DHT22;12030;50.376;8.762;2023-12-28T04:33:51;7.30;99.90
23703;DHT22;12030;50.376;8.762;2023-12-28T04:36:17;7.30;99.90
23703;DHT22;12030;50.376;8.762;2023-12-28T04:38:42;7.40;99.90
23703;DHT22;12030;50.376;8.762;2023-12-28T04:41:09;7.40;99.90
23703;DHT22;12030;50.376;8.762;2023-12-28T04:43:35;7.40;99.90
23703;DHT22;12030;50.376;8.762;2023-12-28T04:46:04;7.50;99.90
23703;DHT22;12030;50.376;8.762;2023-12-28T04:48:30;7.50;99.90
23703;DHT22;12030;50.376;8.762;2023-12-28T04:50:55;7.50;99.90
23703;DHT22;12030;50.376;8.762;2023-12-28T04:53:21;7.50;99.90
23703;DHT22;12030;50.376;8.762;2023-12-28T04:55:47;7.60;99.90
23703;DHT22;12030;50.376;8.762;2023-12-28T04:58:12;7.60;99.90
23703;DHT22;12030;50.376;8.762;2023-12-28T05:00:38;7.60;99.90
23703;DHT22;12030;50.376;8.762;2023-12-28T05:03:04;7.60;99.90
23703;DHT22;12030;50.376;8.762;2023-12-28T05:05:30;7.60;99.90
23703;DHT22;12030;50.376;8.762;2023-12-28T05:07:55;7.60;99.90
23703;DHT22;12030;50.376;8.762;2023-12-28T05:10:21;7.60;99.90
23703;DHT22;12030;50.376;8.762;2023-12-28T05:12:46;7.70;99.90
23703;DHT22;12030;50.376;8.762;2023-12-28T05:15:12;7.70;99.90
23703;DHT22;12030;50.376;8.762;2023-12-28T05:17:37;7.70;99.90
23703;DHT22;12030;50.376;8.762;2023-12-28T05:20:03;7.70;99.90
23703;DHT22;12030;50.376;8.762;2023-12-28T05:22:29;7.80;99.90
23703;DHT22;12030;50.376;8.762;2023-12-28T05:24:54;7.80;99.90
23703;DHT22;12030;50.376;8.762;2023-12-28T05:27:20;7.80;99.90
23703;DHT22;12030;50.376;8.762;2023-12-28T05:29:45;7.90;99.90
23703;DHT22;12030;50.376;8.762;2023-12-28T05:32:11;7.90;99.90
23703;DHT22;12030;50.376;8.762;2023-12-28T05:34:36;7.90;99.90
23703;DHT22;12030;50.376;8.762;2023-12-28T05:37:02;7.90;99.90
23703;DHT22;12030;50.376;8.762;2023-12-28T05:39:27;8.00;99.90
23703;DHT22;12030;50.376;8.762;2023-12-28T05:41:53;8.00;99.90
23703;DHT22;12030;50.376;8.762;2023-12-28T05:44:18;7.90;99.90
23703;DHT22;12030;50.376;8.762;2023-12-28T05:46:44;7.90;99.90
23703;DHT22;12030;50.376;8.762;2023-12-28T05:49:09;7.90;99.90
23703;DHT22;12030;50.376;8.762;2023-12-28T05:51:39;7.90;99.90
23703;DHT22;12030;50.376;8.762;2023-12-28T05:54:08;7.80;99.90
23703;DHT22;12030;50.376;8.762;2023-12-28T05:56:34;7.80;99.90
23703;DHT22;12030;50.376;8.762;2023-12-28T05:59:00;7.80;99.90
23703;DHT22;12030;50.376;8.762;2023-12-28T06:01:25;7.80;99.90
23703;DHT22;12030;50.376;8.762;2023-12-28T06:03:51;7.80;99.90
23703;DHT22;12030;50.376;8.762;2023-12-28T06:06:18;7.80;99.90
23703;DHT22;12030;50.376;8.762;2023-12-28T06:08:44;7.80;99.90
23703;DHT22;12030;50.376;8.762;2023-12-28T06:11:09;7.70;99.90
23703;DHT22;12030;50.376;8.762;2023-12-28T06:13:35;7.70;99.90
23703;DHT22;12030;50.376;8.762;2023-12-28T06:16:01;7.70;99.90
23703;DHT22;12030;50.376;8.762;2023-12-28T06:18:26;7.70;99.90
23703;DHT22;12030;50.376;8.762;2023-12-28T06:20:52;7.70;99.90
23703;DHT22;12030;50.376;8.762;2023-12-28T06:23:17;7.80;99.90
23703;DHT22;12030;50.376;8.762;2023-12-28T06:25:43;7.90;99.90
23703;DHT22;12030;50.376;8.762;2023-12-28T06:28:08;8.00;99.90
23703;DHT22;12030;50.376;8.762;2023-12-28T06:30:34;8.00;99.90
23703;DHT22;12030;50.376;8.762;2023-12-28T06:32:59;7.80;99.90
23703;DHT22;12030;50.376;8.762;2023-12-28T06:35:25;7.90;99.90
23703;DHT22;12030;50.376;8.762;2023-12-28T06:37:50;7.90;99.90
23703;DHT22;12030;50.376;8.762;2023-12-28T06:40:16;7.90;99.90
23703;DHT22;12030;50.376;8.762;2023-12-28T06:42:41;7.90;99.90
23703;DHT22;12030;50.376;8.762;2023-12-28T06:45:09;7.90;99.90
23703;DHT22;12030;50.376;8.762;2023-12-28T06:47:34;7.90;99.90
23703;DHT22;12030;50.376;8.762;2023-12-28T06:50:00;7.90;99.90
23703;DHT22;12030;50.376;8.762;2023-12-28T06:52:25;7.90;99.90
23703;DHT22;12030;50.376;8.762;2023-12-28T06:54:51;7.90;99.90
23703;DHT22;12030;50.376;8.762;2023-12-28T06:57:18;7.90;99.90
23703;DHT22;12030;50.376;8.762;2023-12-28T06:59:44;7.80;99.90
23703;DHT22;12030;50.376;8.762;2023-12-28T07:02:09;7.80;99.90
23703;DHT22;12030;50.376;8.762;2023-12-28T07:04:35;7.90;99.90
23703;DHT22;12030;50.376;8.762;2023-12-28T07:07:00;7.80;99.90
23703;DHT22;12030;50.376;8.762;2023-12-28T07:09:26;7.90;99.90
23703;DHT22;12030;50.376;8.762;2023-12-28T07:11:51;7.80;99.90
23703;DHT22;12030;50.376;8.762;2023-12-28T07:14:17;7.90;99.90
23703;DHT22;12030;50.376;8.762;2023-12-28T07:16:42;7.90;99.90
23703;DHT22;12030;50.376;8.762;2023-12-28T07:19:08;7.90;99.90
23703;DHT22;12030;50.376;8.762;2023-12-28T07:21:33;7.90;99.90
23703;DHT22;12030;50.376;8.762;2023-12-28T07:23:59;7.90;99.90
23703;DHT22;12030;50.376;8.762;2023-12-28T07:26:24;7.90;99.90
23703;DHT22;12030;50.376;8.762;2023-12-28T07:28:50;7.90;99.90
23703;DHT22;12030;50.376;8.762;2023-12-28T07:31:26;7.90;99.90
23703;DHT22;12030;50.376;8.762;2023-12-28T07:33:52;8.00;99.90
23703;DHT22;12030;50.376;8.762;2023-12-28T07:36:18;8.00;99.90
23703;DHT22;12030;50.376;8.762;2023-12-28T07:38:43;8.00;99.90
23703;DHT22;12030;50.376;8.762;2023-12-28T07:41:09;8.00;99.90
23703;DHT22;12030;50.376;8.762;2023-12-28T07:43:35;8.00;99.90
23703;DHT22;12030;50.376;8.762;2023-12-28T07:46:01;8.10;99.90
23703;DHT22;12030;50.376;8.762;2023-12-28T07:48:27;8.10;99.90
23703;DHT22;12030;50.376;8.762;2023-12-28T07:50:52;8.10;99.90
23703;DHT22;12030;50.376;8.762;2023-12-28T07:53:18;8.10;99.90
23703;DHT22;12030;50.376;8.762;2023-12-28T07:55:44;8.10;99.90
23703;DHT22;12030;50.376;8.762;2023-12-28T07:58:09;8.10;99.90
23703;DHT22;12030;50.376;8.762;2023-12-28T08:00:35;8.10;99.90
23703;DHT22;12030;50.376;8.762;2023-12-28T08:03:00;8.10;99.90
23703;DHT22;12030;50.376;8.762;2023-12-28T08:05:26;8.10;99.90
23703;DHT22;12030;50.376;8.762;2023-12-28T08:07:51;8.20;99.90
23703;DHT22;12030;50.376;8.762;2023-12-28T08:10:17;8.20;99.90
23703;DHT22;12030;50.376;8.762;2023-12-28T08:12:42;8.30;99.90
23703;DHT22;12030;50.376;8.762;2023-12-28T08:15:08;8.30;99.90
23703;DHT22;12030;50.376;8.762;2023-12-28T08:17:34;8.30;99.90
23703;DHT22;12030;50.376;8.762;2023-12-28T08:19:59;8.30;99.90
23703;DHT22;12030;50.376;8.762;2023-12-28T08:22:25;8.30;99.90
23703;DHT22;12030;50.376;8.762;2023-12-28T08:24:50;8.30;99.90
23703;DHT22;12030;50.376;8.762;2023-12-28T08:27:16;8.30;99.90
23703;DHT22;12030;50.376;8.762;2023-12-28T08:29:41;8.30;99.90
23703;DHT22;12030;50.376;8.762;2023-12-28T08:32:07;8.30;99.90
23703;DHT22;12030;50.376;8.762;2023-12-28T08:34:33;8.30;99.90
23703;DHT22;12030;50.376;8.762;2023-12-28T08:36:58;8.40;99.90
23703;DHT22;12030;50.376;8.762;2023-12-28T08:39:24;8.40;99.90
23703;DHT22;12030;50.376;8.762;2023-12-28T08:41:50;8.40;99.90
23703;DHT22;12030;50.376;8.762;2023-12-28T08:44:15;8.40;99.90
23703;DHT22;12030;50.376;8.762;2023-12-28T08:46:41;8.50;99.90
23703;DHT22;12030;50.376;8.762;2023-12-28T08:49:06;8.50;99.90
23703;DHT22;12030;50.376;8.762;2023-12-28T08:51:32;8.50;99.90
23703;DHT22;12030;50.376;8.762;2023-12-28T08:53:57;8.50;99.90
23703;DHT22;12030;50.376;8.762;2023-12-28T08:56:23;8.50;99.90
23703;DHT22;12030;50.376;8.762;2023-12-28T08:58:49;8.50;99.90
23703;DHT22;12030;50.376;8.762;2023-12-28T09:01:23;8.50;99.90
23703;DHT22;12030;50.376;8.762;2023-12-28T09:03:53;8.60;99.90
23703;DHT22;12030;50.376;8.762;2023-12-28T09:06:20;8.50;99.90
23703;DHT22;12030;50.376;8.762;2023-12-28T09:08:49;8.60;99.90
23703;DHT22;12030;50.376;8.762;2023-12-28T09:11:16;8.60;99.90
23703;DHT22;12030;50.376;8.762;2023-12-28T09:13:42;8.60;99.90
23703;DHT22;12030;50.376;8.762;2023-12-28T09:16:09;8.60;99.90
23703;DHT22;12030;50.376;8.762;2023-12-28T09:18:35;8.70;99.90
23703;DHT22;12030;50.376;8.762;2023-12-28T09:21:04;8.70;99.90
23703;DHT22;12030;50.376;8.762;2023-12-28T09:23:31;8.70;99.90
23703;DHT22;12030;50.376;8.762;2023-12-28T09:26:01;8.70;99.90
23703;DHT22;12030;50.376;8.762;2023-12-28T09:28:28;8.70;99.90
23703;DHT22;12030;50.376;8.762;2023-12-28T09:30:54;8.70;99.90
23703;DHT22;12030;50.376;8.762;2023-12-28T09:33:19;8.70;99.90
23703;DHT22;12030;50.376;8.762;2023-12-28T09:35:45;8.70;99.90
23703;DHT22;12030;50.376;8.762;2023-12-28T09:38:11;8.70;99.90
23703;DHT22;12030;50.376;8.762;2023-12-28T09:40:36;8.70;99.90
23703;DHT22;12030;50.376;8.762;2023-12-28T09:43:24;8.70;99.90
23703;DHT22;12030;50.376;8.762;2023-12-28T09:45:54;8.80;99.90
23703;DHT22;12030;50.376;8.762;2023-12-28T09:48:21;8.80;99.90
23703;DHT22;12030;50.376;8.762;2023-12-28T09:50:52;8.90;99.90
23703;DHT22;12030;50.376;8.762;2023-12-28T09:53:24;8.90;99.90
23703;DHT22;12030;50.376;8.762;2023-12-28T09:55:50;9.00;99.90
23703;DHT22;12030;50.376;8.762;2023-12-28T09:58:17;9.00;99.90
23703;DHT22;12030;50.376;8.762;2023-12-28T10:00:45;9.00;99.90
23703;DHT22;12030;50.376;8.762;2023-12-28T10:03:12;9.00;99.90
23703;DHT22;12030;50.376;8.762;2023-12-28T10:05:40;9.10;99.90
23703;DHT22;12030;50.376;8.762;2023-12-28T10:08:06;9.10;99.90
23703;DHT22;12030;50.376;8.762;2023-12-28T10:10:32;9.20;99.90
23703;DHT22;12030;50.376;8.762;2023-12-28T10:12:57;9.20;99.90
23703;DHT22;12030;50.376;8.762;2023-12-28T10:15:23;9.20;99.90
23703;DHT22;12030;50.376;8.762;2023-12-28T10:17:51;9.20;99.90
23703;DHT22;12030;50.376;8.762;2023-12-28T10:20:17;9.30;99.90
23703;DHT22;12030;50.376;8.762;2023-12-28T10:22:43;9.40;99.90
23703;DHT22;12030;50.376;8.762;2023-12-28T10:25:09;9.50;99.90
23703;DHT22;12030;50.376;8.762;2023-12-28T10:27:39;9.50;99.90
23703;DHT22;12030;50.376;8.762;2023-12-28T10:30:07;9.50;99.90
23703;DHT22;12030;50.376;8.762;2023-12-28T10:32:32;9.40;99.90
23703;DHT22;12030;50.376;8.762;2023-12-28T10:34:58;9.40;99.90
23703;DHT22;12030;50.376;8.762;2023-12-28T10:37:26;9.40;99.90
23703;DHT22;12030;50.376;8.762;2023-12-28T10:39:53;9.40;99.90
23703;DHT22;12030;50.376;8.762;2023-12-28T10:42:31;9.40;99.90
23703;DHT22;12030;50.376;8.762;2023-12-28T10:45:10;9.50;99.90
23703;DHT22;12030;50.376;8.762;2023-12-28T10:47:43;9.50;99.90
23703;DHT22;12030;50.376;8.762;2023-12-28T10:50:10;9.50;99.90
23703;DHT22;12030;50.376;8.762;2023-12-28T10:52:37;9.50;99.90
23703;DHT22;12030;50.376;8.762;2023-12-28T11:00:30;9.70;99.90
23703;DHT22;12030;50.376;8.762;2023-12-28T11:03:02;9.80;99.90
23703;DHT22;12030;50.376;8.762;2023-12-28T11:05:29;9.80;99.90
23703;DHT22;12030;50.376;8.762;2023-12-28T11:07:57;9.80;99.90
23703;DHT22;12030;50.376;8.762;2023-12-28T11:10:24;9.80;99.90
23703;DHT22;12030;50.376;8.762;2023-12-28T11:12:54;9.80;99.90
23703;DHT22;12030;50.376;8.762;2023-12-28T11:15:21;9.90;99.90
23703;DHT22;12030;50.376;8.762;2023-12-28T11:17:49;10.00;99.90
23703;DHT22;12030;50.376;8.762;2023-12-28T11:20:14;10.00;99.90
23703;DHT22;12030;50.376;8.762;2023-12-28T11:22:41;10.00;99.90
23703;DHT22;12030;50.376;8.762;2023-12-28T11:25:14;10.10;99.90
23703;DHT22;12030;50.376;8.762;2023-12-28T11:27:40;10.10;99.90
23703;DHT22;12030;50.376;8.762;2023-12-28T11:30:07;10.10;99.90
23703;DHT22;12030;50.376;8.762;2023-12-28T11:32:42;10.10;99.90
23703;DHT22;12030;50.376;8.762;2023-12-28T11:35:10;10.20;99.90
23703;DHT22;12030;50.376;8.762;2023-12-28T11:37:36;10.20;99.90
23703;DHT22;12030;50.376;8.762;2023-12-28T11:40:16;10.20;99.90
23703;DHT22;12030;50.376;8.762;2023-12-28T11:42:53;10.20;99.90
23703;DHT22;12030;50.376;8.762;2023-12-28T11:45:20;10.10;99.90
23703;DHT22;12030;50.376;8.762;2023-12-28T11:47:46;10.20;99.90
23703;DHT22;12030;50.376;8.762;2023-12-28T11:50:12;10.20;99.90
23703;DHT22;12030;50.376;8.762;2023-12-28T11:52:38;10.20;99.90
23703;DHT22;12030;50.376;8.762;2023-12-28T11:55:05;10.20;99.90
23703;DHT22;12030;50.376;8.762;2023-12-28T11:57:31;10.30;99.90
23703;DHT22;12030;50.376;8.762;2023-12-28T12:00:00;10.30;99.90
23703;DHT22;12030;50.376;8.762;2023-12-28T12:02:26;10.30;99.90
23703;DHT22;12030;50.376;8.762;2023-12-28T12:04:54;10.30;99.90
23703;DHT22;12030;50.376;8.762;2023-12-28T12:07:20;10.30;99.90
23703;DHT22;12030;50.376;8.762;2023-12-28T12:09:45;10.30;99.90
23703;DHT22;12030;50.376;8.762;2023-12-28T12:12:11;10.30;99.90
23703;DHT22;12030;50.376;8.762;2023-12-28T12:14:36;10.30;99.90
23703;DHT22;12030;50.376;8.762;2023-12-28T12:17:04;10.40;99.90
23703;DHT22;12030;50.376;8.762;2023-12-28T12:19:29;10.40;99.90
23703;DHT22;12030;50.376;8.762;2023-12-28T12:21:56;10.40;99.90
23703;DHT22;12030;50.376;8.762;2023-12-28T12:24:22;10.30;99.90
23703;DHT22;12030;50.376;8.762;2023-12-28T12:26:49;10.40;99.90
23703;DHT22;12030;50.376;8.762;2023-12-28T12:29:15;10.30;99.90
23703;DHT22;12030;50.376;8.762;2023-12-28T12:31:41;10.30;99.90
23703;DHT22;12030;50.376;8.762;2023-12-28T12:34:09;10.40;99.90
23703;DHT22;12030;50.376;8.762;2023-12-28T12:36:35;10.40;99.90
23703;DHT22;12030;50.376;8.762;2023-12-28T12:39:01;10.40;99.90
23703;DHT22;12030;50.376;8.762;2023-12-28T12:41:26;10.40;99.90
23703;DHT22;12030;50.376;8.762;2023-12-28T12:43:52;10.50;99.90
23703;DHT22;12030;50.376;8.762;2023-12-28T12:46:21;10.40;99.90
23703;DHT22;12030;50.376;8.762;2023-12-28T12:49:00;10.50;99.90
23703;DHT22;12030;50.376;8.762;2023-12-28T12:51:28;10.50;99.90
23703;DHT22;12030;50.376;8.762;2023-12-28T12:53:57;10.50;99.90
23703;DHT22;12030;50.376;8.762;2023-12-28T12:56:25;10.50;99.90
23703;DHT22;12030;50.376;8.762;2023-12-28T12:58:51;10.50;99.90
23703;DHT22;12030;50.376;8.762;2023-12-28T13:01:16;10.60;99.90
23703;DHT22;12030;50.376;8.762;2023-12-28T13:03:42;10.60;99.90
23703;DHT22;12030;50.376;8.762;2023-12-28T13:06:07;10.60;99.90
23703;DHT22;12030;50.376;8.762;2023-12-28T13:08:33;10.60;99.90
23703;DHT22;12030;50.376;8.762;2023-12-28T13:10:58;10.60;99.90
23703;DHT22;12030;50.376;8.762;2023-12-28T13:13:24;10.60;99.90
23703;DHT22;12030;50.376;8.762;2023-12-28T13:15:50;10.60;99.90
23703;DHT22;12030;50.376;8.762;2023-12-28T13:18:15;10.60;99.90
23703;DHT22;12030;50.376;8.762;2023-12-28T13:20:41;10.60;99.90
23703;DHT22;12030;50.376;8.762;2023-12-28T13:23:08;10.60;99.90
23703;DHT22;12030;50.376;8.762;2023-12-28T13:25:34;10.60;99.90
23703;DHT22;12030;50.376;8.762;2023-12-28T13:27:59;10.60;99.90
23703;DHT22;12030;50.376;8.762;2023-12-28T13:30:25;10.70;99.90
23703;DHT22;12030;50.376;8.762;2023-12-28T13:32:54;10.70;99.90
23703;DHT22;12030;50.376;8.762;2023-12-28T13:35:22;10.70;99.90
23703;DHT22;12030;50.376;8.762;2023-12-28T13:37:47;10.70;99.90
23703;DHT22;12030;50.376;8.762;2023-12-28T13:40:13;10.70;99.90
23703;DHT22;12030;50.376;8.762;2023-12-28T13:42:38;10.70;99.90
23703;DHT22;12030;50.376;8.762;2023-12-28T13:45:04;10.70;99.90
23703;DHT22;12030;50.376;8.762;2023-12-28T13:47:30;10.70;99.90
23703;DHT22;12030;50.376;8.762;2023-12-28T13:49:56;10.80;99.90
23703;DHT22;12030;50.376;8.762;2023-12-28T13:52:22;10.90;99.90
23703;DHT22;12030;50.376;8.762;2023-12-28T13:54:47;10.90;99.90
23703;DHT22;12030;50.376;8.762;2023-12-28T13:57:13;11.10;99.90
23703;DHT22;12030;50.376;8.762;2023-12-28T13:59:38;11.10;99.90
23703;DHT22;12030;50.376;8.762;2023-12-28T14:02:05;11.10;99.90
23703;DHT22;12030;50.376;8.762;2023-12-28T14:04:31;11.00;99.90
23703;DHT22;12030;50.376;8.762;2023-12-28T14:06:56;10.90;99.90
23703;DHT22;12030;50.376;8.762;2023-12-28T14:09:22;10.80;99.90
23703;DHT22;12030;50.376;8.762;2023-12-28T14:11:47;10.80;99.90
23703;DHT22;12030;50.376;8.762;2023-12-28T14:14:13;10.70;99.90
23703;DHT22;12030;50.376;8.762;2023-12-28T14:16:39;10.70;99.90
23703;DHT22;12030;50.376;8.762;2023-12-28T14:19:04;10.60;99.90
23703;DHT22;12030;50.376;8.762;2023-12-28T14:21:35;10.60;99.90
23703;DHT22;12030;50.376;8.762;2023-12-28T14:24:01;10.60;99.90
23703;DHT22;12030;50.376;8.762;2023-12-28T14:26:27;10.60;99.90
23703;DHT22;12030;50.376;8.762;2023-12-28T14:28:53;10.60;99.90
23703;DHT22;12030;50.376;8.762;2023-12-28T14:31:19;10.60;99.90
23703;DHT22;12030;50.376;8.762;2023-12-28T14:33:44;10.60;99.90
23703;DHT22;12030;50.376;8.762;2023-12-28T14:36:36;10.60;99.90
23703;DHT22;12030;50.376;8.762;2023-12-28T14:39:07;10.50;99.90
23703;DHT22;12030;50.376;8.762;2023-12-28T14:41:37;10.50;99.90
23703;DHT22;12030;50.376;8.762;2023-12-28T14:44:03;10.40;99.90
23703;DHT22;12030;50.376;8.762;2023-12-28T14:46:29;10.40;99.90
23703;DHT22;12030;50.376;8.762;2023-12-28T14:48:55;10.40;99.90
23703;DHT22;12030;50.376;8.762;2023-12-28T14:51:21;10.40;99.90
23703;DHT22;12030;50.376;8.762;2023-12-28T14:53:47;10.40;99.90
23703;DHT22;12030;50.376;8.762;2023-12-28T14:56:13;10.40;99.90
23703;DHT22;12030;50.376;8.762;2023-12-28T14:58:39;10.30;99.90
23703;DHT22;12030;50.376;8.762;2023-12-28T15:01:05;10.30;99.90
23703;DHT22;12030;50.376;8.762;2023-12-28T15:03:31;10.20;99.90
23703;DHT22;12030;50.376;8.762;2023-12-28T15:05:57;10.20;99.90
23703;DHT22;12030;50.376;8.762;2023-12-28T15:08:23;10.10;99.90
23703;DHT22;12030;50.376;8.762;2023-12-28T15:10:50;10.10;99.90
23703;DHT22;12030;50.376;8.762;2023-12-28T15:13:16;10.10;99.90
23703;DHT22;12030;50.376;8.762;2023-12-28T15:15:43;10.10;99.90
23703;DHT22;12030;50.376;8.762;2023-12-28T15:18:09;10.00;99.90
23703;DHT22;12030;50.376;8.762;2023-12-28T15:20:35;10.00;99.90
23703;DHT22;12030;50.376;8.762;2023-12-28T15:23:01;9.90;99.90
23703;DHT22;12030;50.376;8.762;2023-12-28T15:25:27;9.80;99.90
23703;DHT22;12030;50.376;8.762;2023-12-28T15:27:52;9.90;99.90
23703;DHT22;12030;50.376;8.762;2023-12-28T15:30:18;9.80;99.90
23703;DHT22;12030;50.376;8.762;2023-12-28T15:32:43;9.80;99.90
23703;DHT22;12030;50.376;8.762;2023-12-28T15:35:13;9.70;99.90
23703;DHT22;12030;50.376;8.762;2023-12-28T15:37:39;9.70;99.90
23703;DHT22;12030;50.376;8.762;2023-12-28T15:40:05;9.70;99.90
23703;DHT22;12030;50.376;8.762;2023-12-28T15:42:31;9.60;99.90
23703;DHT22;12030;50.376;8.762;2023-12-28T15:44:57;9.60;99.90
23703;DHT22;12030;50.376;8.762;2023-12-28T15:47:22;9.60;99.90
23703;DHT22;12030;50.376;8.762;2023-12-28T15:49:48;9.50;99.90